sensor_id;sensor_type;location;lat;lon;timestamp;temperature;humidity
40636;DHT22;26642;55.766;37.828;2023-12-22T00:01:41;9.10;79.40
40636;DHT22;26642;55.766;37.828;2023-12-22T00:04:07;9.00;79.30
40636;DHT22;26642;55.766;37.828;2023-12-22T00:06:33;9.00;80.10
40636;DHT22;26642;55.766;37.828;2023-12-22T00:08:59;9.00;80.20
40636;DHT22;26642;55.766;37.828;2023-12-22T00:11:25;9.00;80.70
40636;DHT22;26642;55.766;37.828;2023-12-22T00:13:51;9.00;80.90
40636;DHT22;26642;55.766;37.828;2023-12-22T00:16:17;9.00;81.80
40636;DHT22;26642;55.766;37.828;2023-12-22T00:18:43;9.00;81.60
40636;DHT22;26642;55.766;37.828;2023-12-22T00:21:10;9.00;81.50
40636;DHT22;26642;55.766;37.828;2023-12-22T00:23:37;9.00;81.40
40636;DHT22;26642;55.766;37.828;2023-12-22T00:26:04;9.00;81.60
40636;DHT22;26642;55.766;37.828;2023-12-22T00:28:30;9.00;81.60
40636;DHT22;26642;55.766;37.828;2023-12-22T00:30:59;9.00;81.90
40636;DHT22;26642;55.766;37.828;2023-12-22T00:33:25;9.00;81.80
40636;DHT22;26642;55.766;37.828;2023-12-22T00:35:52;9.00;81.80
40636;DHT22;26642;55.766;37.828;2023-12-22T00:38:18;9.00;82.00
40636;DHT22;26642;55.766;37.828;2023-12-22T00:40:44;9.00;81.80
40636;DHT22;26642;55.766;37.828;2023-12-22T00:43:10;9.00;82.00
40636;DHT22;26642;55.766;37.828;2023-12-22T00:45:36;9.00;82.00
40636;DHT22;26642;55.766;37.828;2023-12-22T00:48:02;9.00;82.00
40636;DHT22;26642;55.766;37.828;2023-12-22T00:50:28;9.00;81.90
40636;DHT22;26642;55.766;37.828;2023-12-22T00:52:54;9.00;82.00
40636;DHT22;26642;55.766;37.828;2023-12-22T00:55:20;9.00;82.00
40636;DHT22;26642;55.766;37.828;2023-12-22T00:57:46;9.00;82.20
40636;DHT22;26642;55.766;37.828;2023-12-22T01:00:12;9.00;82.20
40636;DHT22;26642;55.766;37.828;2023-12-22T01:02:38;9.00;82.10
40636;DHT22;26642;55.766;37.828;2023-12-22T01:05:05;9.00;82.10
40636;DHT22;26642;55.766;37.828;2023-12-22T01:07:31;9.00;82.00
40636;DHT22;26642;55.766;37.828;2023-12-22T01:09:57;9.00;82.00
40636;DHT22;26642;55.766;37.828;2023-12-22T01:12:28;8.90;81.90
40636;DHT22;26642;55.766;37.828;2023-12-22T01:14:55;9.00;82.00
40636;DHT22;26642;55.766;37.828;2023-12-22T01:17:21;8.90;81.80
40636;DHT22;26642;55.766;37.828;2023-12-22T01:19:47;8.90;81.80
40636;DHT22;26642;55.766;37.828;2023-12-22T01:22:13;8.90;81.80
40636;DHT22;26642;55.766;37.828;2023-12-22T01:24:40;8.90;81.80
40636;DHT22;26642;55.766;37.828;2023-12-22T01:27:09;8.90;82.00
40636;DHT22;26642;55.766;37.828;2023-12-22T01:29:35;8.90;82.00
40636;DHT22;26642;55.766;37.828;2023-12-22T01:32:01;8.90;82.00
40636;DHT22;26642;55.766;37.828;2023-12-22T01:34:27;8.90;82.00
40636;DHT22;26642;55.766;37.828;2023-12-22T01:36:53;8.90;82.00
40636;DHT22;26642;55.766;37.828;2023-12-22T01:39:19;8.90;81.90
40636;DHT22;26642;55.766;37.828;2023-12-22T01:41:45;8.90;81.90
40636;DHT22;26642;55.766;37.828;2023-12-22T01:44:11;8.90;81.80
40636;DHT22;26642;55.766;37.828;2023-12-22T01:46:38;8.90;81.80
40636;DHT22;26642;55.766;37.828;2023-12-22T01:49:05;8.90;81.90
40636;DHT22;26642;55.766;37.828;2023-12-22T01:51:33;8.90;82.00
40636;DHT22;26642;55.766;37.828;2023-12-22T01:54:03;8.90;81.90
40636;DHT22;26642;55.766;37.828;2023-12-22T01:56:30;8.90;81.80
40636;DHT22;26642;55.766;37.828;2023-12-22T01:58:59;8.90;82.40
40636;DHT22;26642;55.766;37.828;2023-12-22T02:01:27;8.90;82.20
40636;DHT22;26642;55.766;37.828;2023-12-22T02:03:54;8.80;81.90
40636;DHT22;26642;55.766;37.828;2023-12-22T02:06:21;8.90;82.00
40636;DHT22;26642;55.766;37.828;2023-12-22T02:08:47;8.90;82.30
40636;DHT22;26642;55.766;37.828;2023-12-22T02:11:14;8.90;82.10
40636;DHT22;26642;55.766;37.828;2023-12-22T02:13:44;8.80;82.20
40636;DHT22;26642;55.766;37.828;2023-12-22T02:18:56;8.90;82.20
40636;DHT22;26642;55.766;37.828;2023-12-22T02:21:23;8.80;82.00
40636;DHT22;26642;55.766;37.828;2023-12-22T02:23:49;8.80;82.30
40636;DHT22;26642;55.766;37.828;2023-12-22T02:26:42;8.80;82.00
40636;DHT22;26642;55.766;37.828;2023-12-22T02:29:13;8.80;81.90
40636;DHT22;26642;55.766;37.828;2023-12-22T02:31:44;8.80;82.00
40636;DHT22;26642;55.766;37.828;2023-12-22T02:34:19;8.80;81.90
40636;DHT22;26642;55.766;37.828;2023-12-22T02:36:46;8.80;81.80
40636;DHT22;26642;55.766;37.828;2023-12-22T02:39:14;8.80;82.20
40636;DHT22;26642;55.766;37.828;2023-12-22T02:41:43;8.80;81.60
40636;DHT22;26642;55.766;37.828;2023-12-22T02:44:09;8.80;81.80
40636;DHT22;26642;55.766;37.828;2023-12-22T02:46:35;8.80;82.20
40636;DHT22;26642;55.766;37.828;2023-12-22T02:49:01;8.80;82.30
40636;DHT22;26642;55.766;37.828;2023-12-22T02:51:28;8.80;82.10
40636;DHT22;26642;55.766;37.828;2023-12-22T02:53:54;8.80;82.10
40636;DHT22;26642;55.766;37.828;2023-12-22T02:56:20;8.80;82.00
40636;DHT22;26642;55.766;37.828;2023-12-22T02:58:46;8.80;82.20
40636;DHT22;26642;55.766;37.828;2023-12-22T03:01:12;8.80;82.00
40636;DHT22;26642;55.766;37.828;2023-12-22T03:03:38;8.80;82.00
40636;DHT22;26642;55.766;37.828;2023-12-22T03:06:04;8.80;81.80
40636;DHT22;26642;55.766;37.828;2023-12-22T03:08:30;8.80;81.70
40636;DHT22;26642;55.766;37.828;2023-12-22T03:10:56;8.70;81.90
40636;DHT22;26642;55.766;37.828;2023-12-22T03:13:22;8.70;81.80
40636;DHT22;26642;55.766;37.828;2023-12-22T03:15:48;8.70;81.70
40636;DHT22;26642;55.766;37.828;2023-12-22T03:18:14;8.70;81.80
40636;DHT22;26642;55.766;37.828;2023-12-22T03:20:40;8.80;81.60
40636;DHT22;26642;55.766;37.828;2023-12-22T03:23:06;8.70;81.40
40636;DHT22;26642;55.766;37.828;2023-12-22T03:25:32;8.70;81.60
40636;DHT22;26642;55.766;37.828;2023-12-22T03:27:58;8.70;81.40
40636;DHT22;26642;55.766;37.828;2023-12-22T03:30:24;8.70;81.40
40636;DHT22;26642;55.766;37.828;2023-12-22T03:32:50;8.70;81.50
40636;DHT22;26642;55.766;37.828;2023-12-22T03:35:16;8.70;81.50
40636;DHT22;26642;55.766;37.828;2023-12-22T03:37:42;8.70;81.40
40636;DHT22;26642;55.766;37.828;2023-12-22T03:40:08;8.70;81.30
40636;DHT22;26642;55.766;37.828;2023-12-22T03:42:35;8.70;81.10
40636;DHT22;26642;55.766;37.828;2023-12-22T03:45:01;8.70;80.90
40636;DHT22;26642;55.766;37.828;2023-12-22T03:47:27;8.70;81.10
40636;DHT22;26642;55.766;37.828;2023-12-22T03:49:53;8.70;81.20
40636;DHT22;26642;55.766;37.828;2023-12-22T03:52:19;8.70;80.80
40636;DHT22;26642;55.766;37.828;2023-12-22T03:54:45;8.70;80.90
40636;DHT22;26642;55.766;37.828;2023-12-22T03:57:11;8.70;80.90
40636;DHT22;26642;55.766;37.828;2023-12-22T03:59:37;8.60;81.00
40636;DHT22;26642;55.766;37.828;2023-12-22T04:02:03;8.70;81.30
40636;DHT22;26642;55.766;37.828;2023-12-22T04:04:29;8.60;81.50
40636;DHT22;26642;55.766;37.828;2023-12-22T04:06:55;8.60;81.60
40636;DHT22;26642;55.766;37.828;2023-12-22T04:09:21;8.60;81.70
40636;DHT22;26642;55.766;37.828;2023-12-22T04:11:47;8.60;81.10
40636;DHT22;26642;55.766;37.828;2023-12-22T04:14:13;8.60;81.10
40636;DHT22;26642;55.766;37.828;2023-12-22T04:16:40;8.70;81.30
40636;DHT22;26642;55.766;37.828;2023-12-22T04:19:06;8.60;81.00
40636;DHT22;26642;55.766;37.828;2023-12-22T04:21:32;8.60;80.80
40636;DHT22;26642;55.766;37.828;2023-12-22T04:23:58;8.60;80.90
40636;DHT22;26642;55.766;37.828;2023-12-22T04:26:24;8.60;81.00
40636;DHT22;26642;55.766;37.828;2023-12-22T04:28:50;8.60;81.10
40636;DHT22;26642;55.766;37.828;2023-12-22T04:31:16;8.60;80.90
40636;DHT22;26642;55.766;37.828;2023-12-22T04:33:42;8.60;81.00
40636;DHT22;26642;55.766;37.828;2023-12-22T04:36:08;8.60;80.70
40636;DHT22;26642;55.766;37.828;2023-12-22T04:38:34;8.60;80.70
40636;DHT22;26642;55.766;37.828;2023-12-22T04:41:01;8.60;80.90
40636;DHT22;26642;55.766;37.828;2023-12-22T04:43:27;8.60;80.40
40636;DHT22;26642;55.766;37.828;2023-12-22T04:45:53;8.60;80.30
40636;DHT22;26642;55.766;37.828;2023-12-22T04:48:19;8.60;80.30
40636;DHT22;26642;55.766;37.828;2023-12-22T04:50:45;8.60;80.30
40636;DHT22;26642;55.766;37.828;2023-12-22T04:53:11;8.60;80.10
40636;DHT22;26642;55.766;37.828;2023-12-22T04:55:37;8.60;80.30
40636;DHT22;26642;55.766;37.828;2023-12-22T04:58:03;8.60;80.40
40636;DHT22;26642;55.766;37.828;2023-12-22T05:00:29;8.60;80.30
40636;DHT22;26642;55.766;37.828;2023-12-22T05:02:55;8.60;80.50
40636;DHT22;26642;55.766;37.828;2023-12-22T05:05:21;8.60;80.50
40636;DHT22;26642;55.766;37.828;2023-12-22T05:07:47;8.60;80.70
40636;DHT22;26642;55.766;37.828;2023-12-22T05:10:13;8.50;80.60
40636;DHT22;26642;55.766;37.828;2023-12-22T05:12:39;8.50;81.10
40636;DHT22;26642;55.766;37.828;2023-12-22T05:15:05;8.50;81.10
40636;DHT22;26642;55.766;37.828;2023-12-22T05:17:31;8.50;81.10
40636;DHT22;26642;55.766;37.828;2023-12-22T05:19:58;8.50;81.60
40636;DHT22;26642;55.766;37.828;2023-12-22T05:22:24;8.50;81.40
40636;DHT22;26642;55.766;37.828;2023-12-22T05:24:50;8.50;81.40
40636;DHT22;26642;55.766;37.828;2023-12-22T05:27:16;8.50;81.30
40636;DHT22;26642;55.766;37.828;2023-12-22T05:29:42;8.50;81.40
40636;DHT22;26642;55.766;37.828;2023-12-22T05:32:08;8.50;81.40
40636;DHT22;26642;55.766;37.828;2023-12-22T05:34:34;8.50;81.40
40636;DHT22;26642;55.766;37.828;2023-12-22T05:37:02;8.50;81.60
40636;DHT22;26642;55.766;37.828;2023-12-22T05:39:28;8.50;81.50
40636;DHT22;26642;55.766;37.828;2023-12-22T05:41:54;8.50;81.70
40636;DHT22;26642;55.766;37.828;2023-12-22T05:44:20;8.50;81.20
40636;DHT22;26642;55.766;37.828;2023-12-22T05:46:46;8.50;81.10
40636;DHT22;26642;55.766;37.828;2023-12-22T05:49:12;8.50;81.10
40636;DHT22;26642;55.766;37.828;2023-12-22T05:51:39;8.50;81.40
40636;DHT22;26642;55.766;37.828;2023-12-22T05:54:09;8.40;80.70
40636;DHT22;26642;55.766;37.828;2023-12-22T05:56:36;8.50;80.60
40636;DHT22;26642;55.766;37.828;2023-12-22T05:59:02;8.50;81.00
40636;DHT22;26642;55.766;37.828;2023-12-22T06:01:29;8.50;81.00
40636;DHT22;26642;55.766;37.828;2023-12-22T06:03:55;8.50;81.30
40636;DHT22;26642;55.766;37.828;2023-12-22T06:06:22;8.40;81.60
40636;DHT22;26642;55.766;37.828;2023-12-22T06:08:49;8.50;82.50
40636;DHT22;26642;55.766;37.828;2023-12-22T06:11:15;8.50;83.80
40636;DHT22;26642;55.766;37.828;2023-12-22T06:13:41;8.50;84.50
40636;DHT22;26642;55.766;37.828;2023-12-22T06:16:14;8.50;85.20
40636;DHT22;26642;55.766;37.828;2023-12-22T06:18:41;8.50;85.80
40636;DHT22;26642;55.766;37.828;2023-12-22T06:21:09;8.50;85.90
40636;DHT22;26642;55.766;37.828;2023-12-22T06:23:35;8.50;85.90
40636;DHT22;26642;55.766;37.828;2023-12-22T06:26:08;8.50;86.20
40636;DHT22;26642;55.766;37.828;2023-12-22T06:28:34;8.60;86.20
40636;DHT22;26642;55.766;37.828;2023-12-22T06:31:07;8.60;86.40
40636;DHT22;26642;55.766;37.828;2023-12-22T06:33:35;8.60;86.10
40636;DHT22;26642;55.766;37.828;2023-12-22T06:36:00;8.60;86.00
40636;DHT22;26642;55.766;37.828;2023-12-22T06:38:27;8.60;86.40
40636;DHT22;26642;55.766;37.828;2023-12-22T06:40:53;8.60;86.30
40636;DHT22;26642;55.766;37.828;2023-12-22T06:43:20;8.60;86.50
40636;DHT22;26642;55.766;37.828;2023-12-22T06:45:46;8.70;86.50
40636;DHT22;26642;55.766;37.828;2023-12-22T06:48:13;8.70;86.90
40636;DHT22;26642;55.766;37.828;2023-12-22T06:50:39;8.70;86.70
40636;DHT22;26642;55.766;37.828;2023-12-22T06:53:05;8.70;86.70
40636;DHT22;26642;55.766;37.828;2023-12-22T06:55:31;8.70;86.60
40636;DHT22;26642;55.766;37.828;2023-12-22T06:57:57;8.80;86.70
40636;DHT22;26642;55.766;37.828;2023-12-22T07:00:23;8.70;86.60
40636;DHT22;26642;55.766;37.828;2023-12-22T07:02:49;8.80;86.60
40636;DHT22;26642;55.766;37.828;2023-12-22T07:07:47;8.80;86.40
40636;DHT22;26642;55.766;37.828;2023-12-22T07:10:13;8.80;86.10
40636;DHT22;26642;55.766;37.828;2023-12-22T07:12:40;8.80;86.00
40636;DHT22;26642;55.766;37.828;2023-12-22T07:15:06;8.90;86.50
40636;DHT22;26642;55.766;37.828;2023-12-22T07:17:33;8.90;86.40
40636;DHT22;26642;55.766;37.828;2023-12-22T07:19:59;8.90;86.50
40636;DHT22;26642;55.766;37.828;2023-12-22T07:22:25;8.90;86.20
40636;DHT22;26642;55.766;37.828;2023-12-22T07:24:51;8.90;85.80
40636;DHT22;26642;55.766;37.828;2023-12-22T07:27:18;9.00;85.70
40636;DHT22;26642;55.766;37.828;2023-12-22T07:29:44;9.00;85.80
40636;DHT22;26642;55.766;37.828;2023-12-22T07:32:10;9.00;86.00
40636;DHT22;26642;55.766;37.828;2023-12-22T07:34:36;9.00;85.90
40636;DHT22;26642;55.766;37.828;2023-12-22T07:37:02;9.00;85.80
40636;DHT22;26642;55.766;37.828;2023-12-22T07:39:28;9.00;85.70
40636;DHT22;26642;55.766;37.828;2023-12-22T07:41:54;9.10;85.80
40636;DHT22;26642;55.766;37.828;2023-12-22T07:44:20;9.00;85.50
40636;DHT22;26642;55.766;37.828;2023-12-22T07:46:58;9.10;85.60
40636;DHT22;26642;55.766;37.828;2023-12-22T07:49:26;9.10;85.50
40636;DHT22;26642;55.766;37.828;2023-12-22T07:51:53;9.10;85.10
40636;DHT22;26642;55.766;37.828;2023-12-22T07:54:19;9.10;84.90
40636;DHT22;26642;55.766;37.828;2023-12-22T07:56:45;9.10;84.60
40636;DHT22;26642;55.766;37.828;2023-12-22T07:59:11;9.10;84.50
40636;DHT22;26642;55.766;37.828;2023-12-22T08:01:37;9.10;84.20
40636;DHT22;26642;55.766;37.828;2023-12-22T08:04:03;9.20;84.60
40636;DHT22;26642;55.766;37.828;2023-12-22T08:06:30;9.20;84.70
40636;DHT22;26642;55.766;37.828;2023-12-22T08:08:56;9.20;84.20
40636;DHT22;26642;55.766;37.828;2023-12-22T08:11:22;9.20;84.00
40636;DHT22;26642;55.766;37.828;2023-12-22T08:13:51;9.20;84.10
40636;DHT22;26642;55.766;37.828;2023-12-22T08:16:17;9.20;83.90
40636;DHT22;26642;55.766;37.828;2023-12-22T08:18:43;9.30;83.80
40636;DHT22;26642;55.766;37.828;2023-12-22T08:21:08;9.30;83.70
40636;DHT22;26642;55.766;37.828;2023-12-22T08:23:35;9.30;83.60
40636;DHT22;26642;55.766;37.828;2023-12-22T08:26:00;9.30;83.40
40636;DHT22;26642;55.766;37.828;2023-12-22T08:28:26;9.30;83.30
40636;DHT22;26642;55.766;37.828;2023-12-22T08:30:53;9.40;83.20
40636;DHT22;26642;55.766;37.828;2023-12-22T08:33:18;9.40;82.90
40636;DHT22;26642;55.766;37.828;2023-12-22T08:35:44;9.40;82.60
40636;DHT22;26642;55.766;37.828;2023-12-22T08:38:10;9.40;82.50
40636;DHT22;26642;55.766;37.828;2023-12-22T08:40:39;9.40;82.40
40636;DHT22;26642;55.766;37.828;2023-12-22T08:43:05;9.50;82.30
40636;DHT22;26642;55.766;37.828;2023-12-22T08:45:32;9.50;82.30
40636;DHT22;26642;55.766;37.828;2023-12-22T08:47:58;9.50;82.50
40636;DHT22;26642;55.766;37.828;2023-12-22T08:50:24;9.50;82.30
40636;DHT22;26642;55.766;37.828;2023-12-22T08:52:51;9.50;82.20
40636;DHT22;26642;55.766;37.828;2023-12-22T08:55:17;9.50;81.90
40636;DHT22;26642;55.766;37.828;2023-12-22T08:57:43;9.50;82.00
40636;DHT22;26642;55.766;37.828;2023-12-22T09:00:09;9.50;81.70
40636;DHT22;26642;55.766;37.828;2023-12-22T09:02:36;9.50;81.70
40636;DHT22;26642;55.766;37.828;2023-12-22T09:05:02;9.60;81.70
40636;DHT22;26642;55.766;37.828;2023-12-22T09:07:28;9.50;81.70
40636;DHT22;26642;55.766;37.828;2023-12-22T09:09:54;9.60;81.60
40636;DHT22;26642;55.766;37.828;2023-12-22T09:12:20;9.60;81.60
40636;DHT22;26642;55.766;37.828;2023-12-22T09:14:46;9.60;81.20
40636;DHT22;26642;55.766;37.828;2023-12-22T09:17:12;9.60;81.00
40636;DHT22;26642;55.766;37.828;2023-12-22T09:19:38;9.60;81.00
40636;DHT22;26642;55.766;37.828;2023-12-22T09:22:04;9.70;80.80
40636;DHT22;26642;55.766;37.828;2023-12-22T09:24:31;9.70;80.80
40636;DHT22;26642;55.766;37.828;2023-12-22T09:26:57;9.70;80.60
40636;DHT22;26642;55.766;37.828;2023-12-22T09:29:31;9.70;80.60
40636;DHT22;26642;55.766;37.828;2023-12-22T09:32:01;9.70;80.60
40636;DHT22;26642;55.766;37.828;2023-12-22T09:34:27;9.70;80.60
40636;DHT22;26642;55.766;37.828;2023-12-22T09:36:56;9.70;80.60
40636;DHT22;26642;55.766;37.828;2023-12-22T09:39:22;9.70;80.50
40636;DHT22;26642;55.766;37.828;2023-12-22T09:41:49;9.80;80.50
40636;DHT22;26642;55.766;37.828;2023-12-22T09:44:20;9.80;80.60
40636;DHT22;26642;55.766;37.828;2023-12-22T09:46:48;9.70;80.40
40636;DHT22;26642;55.766;37.828;2023-12-22T09:49:21;9.70;80.50
40636;DHT22;26642;55.766;37.828;2023-12-22T09:51:49;9.80;80.30
40636;DHT22;26642;55.766;37.828;2023-12-22T09:54:16;9.80;79.90
40636;DHT22;26642;55.766;37.828;2023-12-22T09:56:44;9.80;79.70
40636;DHT22;26642;55.766;37.828;2023-12-22T09:59:13;9.80;79.60
40636;DHT22;26642;55.766;37.828;2023-12-22T10:01:44;9.80;79.70
40636;DHT22;26642;55.766;37.828;2023-12-22T10:04:12;9.80;79.30
40636;DHT22;26642;55.766;37.828;2023-12-22T10:06:39;9.80;79.10
40636;DHT22;26642;55.766;37.828;2023-12-22T10:09:05;9.80;79.10
40636;DHT22;26642;55.766;37.828;2023-12-22T10:11:35;9.80;79.00
40636;DHT22;26642;55.766;37.828;2023-12-22T10:14:03;9.80;79.00
40636;DHT22;26642;55.766;37.828;2023-12-22T10:16:30;9.80;78.70
40636;DHT22;26642;55.766;37.828;2023-12-22T10:18:58;9.80;78.80
40636;DHT22;26642;55.766;37.828;2023-12-22T10:21:24;9.70;79.10
40636;DHT22;26642;55.766;37.828;2023-12-22T10:23:50;9.80;78.90
40636;DHT22;26642;55.766;37.828;2023-12-22T10:26:16;9.80;79.70
40636;DHT22;26642;55.766;37.828;2023-12-22T10:28:42;9.70;79.00
40636;DHT22;26642;55.766;37.828;2023-12-22T10:31:09;9.80;79.10
40636;DHT22;26642;55.766;37.828;2023-12-22T10:33:35;9.80;79.20
40636;DHT22;26642;55.766;37.828;2023-12-22T10:36:01;9.80;79.30
40636;DHT22;26642;55.766;37.828;2023-12-22T10:38:33;9.80;79.30
40636;DHT22;26642;55.766;37.828;2023-12-22T10:41:06;9.80;79.30
40636;DHT22;26642;55.766;37.828;2023-12-22T10:43:39;9.80;79.30
40636;DHT22;26642;55.766;37.828;2023-12-22T10:46:06;9.80;78.90
40636;DHT22;26642;55.766;37.828;2023-12-22T10:48:34;9.80;79.10
40636;DHT22;26642;55.766;37.828;2023-12-22T10:51:00;9.80;78.80
40636;DHT22;26642;55.766;37.828;2023-12-22T10:53:26;9.80;78.50
40636;DHT22;26642;55.766;37.828;2023-12-22T10:55:53;9.80;78.50
40636;DHT22;26642;55.766;37.828;2023-12-22T10:58:19;9.80;78.70
40636;DHT22;26642;55.766;37.828;2023-12-22T11:00:47;9.80;78.80
40636;DHT22;26642;55.766;37.828;2023-12-22T11:03:17;9.80;79.10
40636;DHT22;26642;55.766;37.828;2023-12-22T11:05:46;9.80;79.20
40636;DHT22;26642;55.766;37.828;2023-12-22T11:08:14;9.80;78.80
40636;DHT22;26642;55.766;37.828;2023-12-22T11:10:47;9.80;78.80
40636;DHT22;26642;55.766;37.828;2023-12-22T11:13:16;9.80;78.90
40636;DHT22;26642;55.766;37.828;2023-12-22T11:15:43;9.70;78.70
40636;DHT22;26642;55.766;37.828;2023-12-22T11:18:09;9.80;78.70
40636;DHT22;26642;55.766;37.828;2023-12-22T11:20:36;9.70;78.30
40636;DHT22;26642;55.766;37.828;2023-12-22T11:23:04;9.70;78.30
40636;DHT22;26642;55.766;37.828;2023-12-22T11:25:31;9.70;78.10
40636;DHT22;26642;55.766;37.828;2023-12-22T11:27:59;9.70;78.00
40636;DHT22;26642;55.766;37.828;2023-12-22T11:30:27;9.70;77.90
40636;DHT22;26642;55.766;37.828;2023-12-22T11:32:54;9.70;77.70
40636;DHT22;26642;55.766;37.828;2023-12-22T11:35:23;9.70;77.80
40636;DHT22;26642;55.766;37.828;2023-12-22T11:37:49;9.70;78.30
40636;DHT22;26642;55.766;37.828;2023-12-22T11:40:16;9.70;78.10
40636;DHT22;26642;55.766;37.828;2023-12-22T11:42:46;9.70;77.80
40636;DHT22;26642;55.766;37.828;2023-12-22T11:45:13;9.70;77.80
40636;DHT22;26642;55.766;37.828;2023-12-22T11:47:42;9.70;77.80
40636;DHT22;26642;55.766;37.828;2023-12-22T11:50:09;9.70;77.70
40636;DHT22;26642;55.766;37.828;2023-12-22T11:52:36;9.70;77.70
40636;DHT22;26642;55.766;37.828;2023-12-22T11:55:02;9.60;77.80
40636;DHT22;26642;55.766;37.828;2023-12-22T12:00:08;9.60;77.60
40636;DHT22;26642;55.766;37.828;2023-12-22T12:02:40;9.60;77.40
40636;DHT22;26642;55.766;37.828;2023-12-22T12:05:08;9.60;77.30
40636;DHT22;26642;55.766;37.828;2023-12-22T12:07:41;9.60;77.30
40636;DHT22;26642;55.766;37.828;2023-12-22T12:10:11;9.60;77.30
40636;DHT22;26642;55.766;37.828;2023-12-22T12:12:38;9.60;77.80
40636;DHT22;26642;55.766;37.828;2023-12-22T12:15:16;9.60;78.20
40636;DHT22;26642;55.766;37.828;2023-12-22T12:17:43;9.60;77.70
40636;DHT22;26642;55.766;37.828;2023-12-22T12:20:10;9.60;77.80
40636;DHT22;26642;55.766;37.828;2023-12-22T12:22:37;9.60;77.70
40636;DHT22;26642;55.766;37.828;2023-12-22T12:25:08;9.60;77.20
40636;DHT22;26642;55.766;37.828;2023-12-22T12:27:38;9.50;76.70
40636;DHT22;26642;55.766;37.828;2023-12-22T12:30:24;9.50;76.50
40636;DHT22;26642;55.766;37.828;2023-12-22T12:32:51;9.50;76.30
40636;DHT22;26642;55.766;37.828;2023-12-22T12:35:18;9.50;76.30
40636;DHT22;26642;55.766;37.828;2023-12-22T12:37:44;9.50;76.30
40636;DHT22;26642;55.766;37.828;2023-12-22T12:40:11;9.50;76.40
40636;DHT22;26642;55.766;37.828;2023-12-22T12:42:39;9.50;76.40
40636;DHT22;26642;55.766;37.828;2023-12-22T12:45:06;9.40;76.20
40636;DHT22;26642;55.766;37.828;2023-12-22T12:47:33;9.40;76.70
40636;DHT22;26642;55.766;37.828;2023-12-22T12:50:00;9.50;77.00
40636;DHT22;26642;55.766;37.828;2023-12-22T12:52:26;9.40;77.10
40636;DHT22;26642;55.766;37.828;2023-12-22T12:54:53;9.40;76.90
40636;DHT22;26642;55.766;37.828;2023-12-22T12:57:19;9.40;76.80
40636;DHT22;26642;55.766;37.828;2023-12-22T12:59:50;9.40;76.90
40636;DHT22;26642;55.766;37.828;2023-12-22T13:02:17;9.40;77.10
40636;DHT22;26642;55.766;37.828;2023-12-22T13:04:43;9.40;76.80
40636;DHT22;26642;55.766;37.828;2023-12-22T13:07:09;9.40;76.90
40636;DHT22;26642;55.766;37.828;2023-12-22T13:09:37;9.40;76.80
40636;DHT22;26642;55.766;37.828;2023-12-22T13:12:04;9.40;77.30
40636;DHT22;26642;55.766;37.828;2023-12-22T13:14:30;9.40;77.40
40636;DHT22;26642;55.766;37.828;2023-12-22T13:16:57;9.40;77.30
40636;DHT22;26642;55.766;37.828;2023-12-22T13:19:24;9.40;77.30
40636;DHT22;26642;55.766;37.828;2023-12-22T13:21:51;9.40;77.70
40636;DHT22;26642;55.766;37.828;2023-12-22T13:24:18;9.40;77.80
40636;DHT22;26642;55.766;37.828;2023-12-22T13:26:45;9.40;77.60
40636;DHT22;26642;55.766;37.828;2023-12-22T13:29:12;9.40;78.10
40636;DHT22;26642;55.766;37.828;2023-12-22T13:31:42;9.40;78.40
40636;DHT22;26642;55.766;37.828;2023-12-22T13:34:14;9.40;78.10
40636;DHT22;26642;55.766;37.828;2023-12-22T13:36:41;9.40;77.90
40636;DHT22;26642;55.766;37.828;2023-12-22T13:39:11;9.40;78.20
40636;DHT22;26642;55.766;37.828;2023-12-22T13:41:41;9.40;78.40
40636;DHT22;26642;55.766;37.828;2023-12-22T13:44:14;9.40;78.10
40636;DHT22;26642;55.766;37.828;2023-12-22T13:46:41;9.40;78.00
40636;DHT22;26642;55.766;37.828;2023-12-22T13:49:13;9.30;77.70
40636;DHT22;26642;55.766;37.828;2023-12-22T13:51:43;9.30;77.50
40636;DHT22;26642;55.766;37.828;2023-12-22T13:54:10;9.30;77.40
40636;DHT22;26642;55.766;37.828;2023-12-22T13:56:37;9.30;77.40
40636;DHT22;26642;55.766;37.828;2023-12-22T13:59:06;9.30;77.60
40636;DHT22;26642;55.766;37.828;2023-12-22T14:01:32;9.30;77.90
40636;DHT22;26642;55.766;37.828;2023-12-22T14:03:59;9.30;78.20
40636;DHT22;26642;55.766;37.828;2023-12-22T14:06:34;9.30;78.20
40636;DHT22;26642;55.766;37.828;2023-12-22T14:09:03;9.30;78.50
40636;DHT22;26642;55.766;37.828;2023-12-22T14:11:29;9.30;78.40
40636;DHT22;26642;55.766;37.828;2023-12-22T14:13:55;9.30;78.40
40636;DHT22;26642;55.766;37.828;2023-12-22T14:16:21;9.30;78.40
40636;DHT22;26642;55.766;37.828;2023-12-22T14:18:47;9.30;78.30
40636;DHT22;26642;55.766;37.828;2023-12-22T14:21:14;9.30;78.30
40636;DHT22;26642;55.766;37.828;2023-12-22T14:23:40;9.30;78.40
40636;DHT22;26642;55.766;37.828;2023-12-22T14:26:06;9.30;78.40
40636;DHT22;26642;55.766;37.828;2023-12-22T14:28:33;9.30;78.80
40636;DHT22;26642;55.766;37.828;2023-12-22T14:30:59;9.30;78.80
40636;DHT22;26642;55.766;37.828;2023-12-22T14:33:25;9.30;79.00
40636;DHT22;26642;55.766;37.828;2023-12-22T14:35:51;9.30;79.30
40636;DHT22;26642;55.766;37.828;2023-12-22T14:38:17;9.30;79.20
40636;DHT22;26642;55.766;37.828;2023-12-22T14:40:43;9.30;78.90
40636;DHT22;26642;55.766;37.828;2023-12-22T14:43:10;9.30;78.90
40636;DHT22;26642;55.766;37.828;2023-12-22T14:45:36;9.30;79.40
40636;DHT22;26642;55.766;37.828;2023-12-22T14:48:02;9.30;78.60
40636;DHT22;26642;55.766;37.828;2023-12-22T14:50:28;9.30;78.70
40636;DHT22;26642;55.766;37.828;2023-12-22T14:52:54;9.30;78.30
40636;DHT22;26642;55.766;37.828;2023-12-22T14:55:20;9.30;78.80
40636;DHT22;26642;55.766;37.828;2023-12-22T14:57:46;9.30;78.70
40636;DHT22;26642;55.766;37.828;2023-12-22T15:00:13;9.20;78.80
40636;DHT22;26642;55.766;37.828;2023-12-22T15:02:39;9.20;78.80
40636;DHT22;26642;55.766;37.828;2023-12-22T15:05:05;9.30;79.00
40636;DHT22;26642;55.766;37.828;2023-12-22T15:07:31;9.30;79.00
40636;DHT22;26642;55.766;37.828;2023-12-22T15:09:57;9.30;79.20
40636;DHT22;26642;55.766;37.828;2023-12-22T15:12:24;9.30;79.20
40636;DHT22;26642;55.766;37.828;2023-12-22T15:14:50;9.30;79.30
40636;DHT22;26642;55.766;37.828;2023-12-22T15:17:19;9.20;79.00
40636;DHT22;26642;55.766;37.828;2023-12-22T15:19:45;9.30;78.70
40636;DHT22;26642;55.766;37.828;2023-12-22T15:22:11;9.20;78.70
40636;DHT22;26642;55.766;37.828;2023-12-22T15:24:39;9.30;78.80
40636;DHT22;26642;55.766;37.828;2023-12-22T15:27:09;9.30;78.80
40636;DHT22;26642;55.766;37.828;2023-12-22T15:29:35;9.20;78.70
40636;DHT22;26642;55.766;37.828;2023-12-22T15:32:01;9.30;78.90
40636;DHT22;26642;55.766;37.828;2023-12-22T15:34:28;9.30;78.90
40636;DHT22;26642;55.766;37.828;2023-12-22T15:36:54;9.20;79.20